createdAt,value
2018-06-02T00:00:47.355Z,59.70
2018-06-02T00:01:47.938Z,56.50
2018-06-02T00:02:47.678Z,55.20
2018-06-02T00:03:48.671Z,57.00
2018-06-02T00:04:47.480Z,55.80
2018-06-02T00:05:47.214Z,55.90
2018-06-02T00:06:48.041Z,55.60
2018-06-02T00:07:47.891Z,56.50
2018-06-02T00:08:47.507Z,55.50
2018-06-02T00:09:47.546Z,53.70
2018-06-02T00:11:08.742Z,57.60
2018-06-02T00:12:08.723Z,57.70
2018-06-02T00:13:09.583Z,56.50
2018-06-02T00:14:30.830Z,58.30
2018-06-02T00:15:30.729Z,59.20
2018-06-02T00:16:53.496Z,60.10
2018-06-02T00:18:38.087Z,60.20
2018-06-02T00:19:38.991Z,62.90
2018-06-02T00:20:39.085Z,61.00
2018-06-02T00:21:38.807Z,62.40
2018-06-02T00:22:38.622Z,64.80
2018-06-02T00:23:38.014Z,63.10
2018-06-02T00:24:38.540Z,63.40
2018-06-02T00:25:37.907Z,61.70
2018-06-02T00:26:38.801Z,66.10
2018-06-02T00:27:38.664Z,66.80
2018-06-02T00:28:38.531Z,63.50
2018-06-02T00:29:38.122Z,66.10
2018-06-02T00:30:38.679Z,66.80
2018-06-02T00:31:38.602Z,65.70
2018-06-02T00:32:38.018Z,65.30
2018-06-02T00:33:59.469Z,64.20
2018-06-02T00:35:00.308Z,65.20
2018-06-02T00:36:00.148Z,65.10
2018-06-02T00:37:00.495Z,68.10
2018-06-02T00:38:00.134Z,67.60
2018-06-02T00:39:00.097Z,67.30
2018-06-02T00:39:59.624Z,66.50
2018-06-02T00:41:00.552Z,70.50
2018-06-02T00:42:00.288Z,69.20
2018-06-02T00:43:01.572Z,67.80
2018-06-02T00:44:00.320Z,69.70
2018-06-02T00:44:59.672Z,68.60
2018-06-02T00:46:00.268Z,67.90
2018-06-02T00:47:21.297Z,68.00
2018-06-02T00:48:20.830Z,66.30
2018-06-02T00:49:21.714Z,65.80
2018-06-02T00:50:21.199Z,66.10
2018-06-02T00:51:21.850Z,65.90
2018-06-02T00:52:21.505Z,67.40
2018-06-02T00:53:20.896Z,67.60
2018-06-02T00:54:43.011Z,67.50
2018-06-02T00:55:42.842Z,65.70
2018-06-02T00:56:44.839Z,66.60
2018-06-02T00:57:43.272Z,67.20
2018-06-02T00:58:42.793Z,66.10
2018-06-02T00:59:43.289Z,69.00
2018-06-02T01:00:43.115Z,67.40
2018-06-02T01:01:42.988Z,66.70
2018-06-02T01:02:43.910Z,68.40
2018-06-02T01:03:43.756Z,69.00
2018-06-02T01:04:43.441Z,70.30
2018-06-02T01:05:43.093Z,69.30
2018-06-02T01:06:43.087Z,68.50
2018-06-02T01:07:43.853Z,65.00
2018-06-02T01:09:26.154Z,56.90
2018-06-02T01:10:17.611Z,60.50
2018-06-02T01:11:17.695Z,57.60
2018-06-02T01:12:17.456Z,55.60
2018-06-02T01:13:17.405Z,50.40
2018-06-02T01:15:00.539Z,48.80
2018-06-02T01:16:00.687Z,48.10
2018-06-02T01:17:00.112Z,47.80
2018-06-02T01:18:00.943Z,45.90
2018-06-02T01:19:45.207Z,43.00
2018-06-02T01:20:46.377Z,42.50
2018-06-02T01:21:46.026Z,42.40
2018-06-02T01:22:45.952Z,42.40
2018-06-02T01:23:46.081Z,42.20
2018-06-02T01:24:45.967Z,43.70
2018-06-02T01:25:45.802Z,42.40
2018-06-02T01:26:46.273Z,45.00
2018-06-02T01:27:45.784Z,47.60
2018-06-02T01:28:45.761Z,46.90
2018-06-02T01:29:46.247Z,46.70
2018-06-02T01:30:46.061Z,48.90
2018-06-02T01:31:45.880Z,50.40
2018-06-02T01:32:45.391Z,49.20
2018-06-02T01:33:45.862Z,52.10
2018-06-02T01:34:45.618Z,55.20
2018-06-02T01:35:45.527Z,56.80
2018-06-02T01:36:46.475Z,57.00
2018-06-02T01:37:46.089Z,60.50
2018-06-02T01:38:45.923Z,57.50
2018-06-02T01:39:45.998Z,59.20
2018-06-02T01:40:46.212Z,60.10
2018-06-02T01:41:45.942Z,60.00
2018-06-02T01:42:45.743Z,58.90
2018-06-02T01:43:45.514Z,58.50
2018-06-02T01:44:45.655Z,63.00
2018-06-02T01:45:45.613Z,60.00
2018-06-02T01:46:45.939Z,60.70
2018-06-02T01:47:46.298Z,60.00
2018-06-02T01:48:46.135Z,60.60
2018-06-02T01:49:47.455Z,60.70
2018-06-02T01:50:46.121Z,58.60
2018-06-02T01:51:45.715Z,58.30
2018-06-02T01:52:49.703Z,60.50
2018-06-02T01:53:45.291Z,58.90
2018-06-02T01:54:45.747Z,60.60
2018-06-02T01:55:45.295Z,58.10
2018-06-02T01:56:45.940Z,59.20
2018-06-02T01:57:45.864Z,57.30
2018-06-02T01:58:45.490Z,58.80
2018-06-02T02:00:32.010Z,56.30
2018-06-02T02:01:32.570Z,55.60
2018-06-02T02:02:32.485Z,53.70
2018-06-02T02:03:32.232Z,53.10
2018-06-02T02:04:32.841Z,53.10
2018-06-02T02:05:32.877Z,53.10
2018-06-02T02:06:32.561Z,52.50
2018-06-02T02:07:32.404Z,53.70
2018-06-02T02:08:31.994Z,53.70
2018-06-02T02:09:32.890Z,52.20
2018-06-02T02:10:32.817Z,53.60
2018-06-02T02:11:32.438Z,53.80
2018-06-02T02:12:31.859Z,52.90
2018-06-02T02:13:32.538Z,53.00
2018-06-02T02:14:32.312Z,53.60
2018-06-02T02:15:32.805Z,52.90
2018-06-02T02:16:32.601Z,51.60
2018-06-02T02:18:17.588Z,52.10
2018-06-02T02:19:18.376Z,54.40
2018-06-02T02:20:18.517Z,55.90
2018-06-02T02:21:17.250Z,57.50
2018-06-02T02:22:17.924Z,59.50
2018-06-02T02:23:18.596Z,60.10
2018-06-02T02:24:38.728Z,58.20
2018-06-02T02:26:00.528Z,59.00
2018-06-02T02:27:01.494Z,63.20
2018-06-02T02:28:01.477Z,59.40
2018-06-02T02:29:00.891Z,59.10
2018-06-02T02:30:00.694Z,60.10
2018-06-02T02:31:23.127Z,59.20
2018-06-02T02:32:23.195Z,60.00
2018-06-02T02:33:23.090Z,60.00
2018-06-02T02:34:22.419Z,58.30
2018-06-02T02:35:45.306Z,56.70
2018-06-02T02:36:45.119Z,57.10
2018-06-02T02:37:45.432Z,56.10
2018-06-02T02:38:45.271Z,52.50
2018-06-02T02:39:44.896Z,51.90
2018-06-02T02:40:45.419Z,50.40
2018-06-02T02:41:45.084Z,50.30
2018-06-02T02:42:45.260Z,51.20
2018-06-02T02:44:07.012Z,48.80
2018-06-02T02:45:07.512Z,50.00
2018-06-02T02:46:07.384Z,49.50
2018-06-02T02:47:07.270Z,52.30
2018-06-02T02:48:07.188Z,49.90
2018-06-02T02:49:28.500Z,51.70
2018-06-02T02:50:28.936Z,50.50
2018-06-02T02:51:28.236Z,52.00
2018-06-02T02:52:28.704Z,52.40
2018-06-02T02:53:28.334Z,51.50
2018-06-02T02:54:29.323Z,52.30
2018-06-02T02:55:29.001Z,52.60
2018-06-02T02:56:28.809Z,52.40
2018-06-02T02:57:28.455Z,53.10
2018-06-02T02:58:29.034Z,53.70
2018-06-02T02:59:28.706Z,54.60
2018-06-02T03:00:28.282Z,53.50
2018-06-02T03:01:28.995Z,55.10
2018-06-02T03:02:29.061Z,55.60
2018-06-02T03:03:29.069Z,52.70
2018-06-02T03:04:28.520Z,57.00
2018-06-02T03:05:29.357Z,57.90
2018-06-02T03:06:29.192Z,56.20
2018-06-02T03:07:29.045Z,57.10
2018-06-02T03:08:50.274Z,56.80
2018-06-02T03:10:58.709Z,55.80
2018-06-02T03:11:59.573Z,54.60
2018-06-02T03:12:59.717Z,55.70
2018-06-02T03:13:59.741Z,53.30
2018-06-02T03:14:58.572Z,56.90
2018-06-02T03:15:59.413Z,54.30
2018-06-02T03:16:59.193Z,51.10
2018-06-02T03:17:58.825Z,51.90
2018-06-02T03:18:59.418Z,51.50
2018-06-02T03:20:20.629Z,48.90
2018-06-02T03:21:21.548Z,53.20
2018-06-02T03:22:21.001Z,52.40
2018-06-02T03:23:21.082Z,53.70
2018-06-02T03:24:20.814Z,51.40
2018-06-02T03:25:20.481Z,52.20
2018-06-02T03:26:21.258Z,53.90
2018-06-02T03:27:21.022Z,52.20
2018-06-02T03:28:20.872Z,52.80
2018-06-02T03:29:20.485Z,52.30
2018-06-02T03:30:45.315Z,50.80
2018-06-02T03:32:09.008Z,50.90
2018-06-02T03:33:53.250Z,50.80
2018-06-02T03:34:53.996Z,49.50
2018-06-02T03:35:53.879Z,47.80
2018-06-02T03:36:54.267Z,48.40
2018-06-02T03:37:54.024Z,47.40
2018-06-02T03:38:54.101Z,45.90
2018-06-02T03:39:54.845Z,45.90
2018-06-02T03:40:53.735Z,44.60
2018-06-02T03:41:53.525Z,43.70
2018-06-02T03:43:15.407Z,42.50
2018-06-02T03:44:37.703Z,42.50
2018-06-02T03:45:38.635Z,41.60
2018-06-02T03:47:02.117Z,42.90
2018-06-02T03:48:02.029Z,42.70
2018-06-02T03:49:23.819Z,42.10
2018-06-02T03:50:24.907Z,41.70
2018-06-02T03:51:23.925Z,42.40
2018-06-02T03:52:24.057Z,42.50
2018-06-02T03:53:24.650Z,40.30
2018-06-02T03:54:23.412Z,41.60
2018-06-02T03:55:45.992Z,43.20
2018-06-02T03:56:46.780Z,41.80
2018-06-02T03:57:46.724Z,41.70
2018-06-02T03:58:46.564Z,43.40
2018-06-02T03:59:46.507Z,42.70
2018-06-02T04:01:08.285Z,41.10
2018-06-02T04:02:08.971Z,42.90
2018-06-02T04:03:08.670Z,41.00
2018-06-02T04:04:08.472Z,42.10
2018-06-02T04:05:08.217Z,40.20
2018-06-02T04:06:08.730Z,41.10
2018-06-02T04:07:51.637Z,42.00
2018-06-02T04:08:53.221Z,39.80
2018-06-02T04:10:35.347Z,42.00
2018-06-02T04:11:58.509Z,41.10
2018-06-02T04:12:58.443Z,40.80
2018-06-02T04:13:58.263Z,40.90
2018-06-02T04:15:20.561Z,41.70
2018-06-02T04:16:21.429Z,43.80
2018-06-02T04:17:22.015Z,41.10
2018-06-02T04:18:20.943Z,40.10
2018-06-02T04:19:20.881Z,42.50
2018-06-02T04:20:20.769Z,43.50
2018-06-02T04:21:42.898Z,42.60
2018-06-02T04:22:43.919Z,44.70
2018-06-02T04:23:43.479Z,44.80
2018-06-02T04:24:43.189Z,44.00
2018-06-02T04:26:07.394Z,44.60
2018-06-02T04:27:08.327Z,45.50
2018-06-02T04:28:09.457Z,45.70
2018-06-02T04:29:07.480Z,47.40
2018-06-02T04:30:08.959Z,46.00
2018-06-02T04:31:07.638Z,44.20
2018-06-02T04:32:07.946Z,45.80
2018-06-02T04:33:07.861Z,46.70
2018-06-02T04:34:08.985Z,45.80
2018-06-02T04:35:08.118Z,46.90
2018-06-02T04:36:07.971Z,45.90
2018-06-02T04:37:07.674Z,45.80
2018-06-02T04:38:32.332Z,45.80
2018-06-02T04:39:55.034Z,46.00
2018-06-02T04:40:55.208Z,46.20
2018-06-02T04:43:04.376Z,48.00
2018-06-02T04:44:05.081Z,49.70
2018-06-02T04:45:08.955Z,46.10
2018-06-02T04:46:05.077Z,48.90
2018-06-02T04:47:05.682Z,47.20
2018-06-02T04:48:04.845Z,47.50
2018-06-02T04:49:04.890Z,44.90
2018-06-02T04:50:28.891Z,45.20
2018-06-02T04:51:31.433Z,47.00
2018-06-02T04:52:29.879Z,46.70
2018-06-02T04:53:31.476Z,48.70
2018-06-02T04:54:52.165Z,48.20
2018-06-02T04:55:55.142Z,47.20
2018-06-02T04:56:53.150Z,49.30
2018-06-02T04:57:53.031Z,48.00
2018-06-02T04:58:53.179Z,48.60
2018-06-02T04:59:53.234Z,50.10
2018-06-02T05:00:52.179Z,49.20
2018-06-02T05:02:14.596Z,49.40
2018-06-02T05:03:36.731Z,48.80
2018-06-02T05:05:01.602Z,48.90
2018-06-02T05:06:01.620Z,48.80
2018-06-02T05:07:02.861Z,46.90
2018-06-02T05:08:25.529Z,45.80
2018-06-02T05:09:26.161Z,44.70
2018-06-02T05:10:26.231Z,46.40
2018-06-02T05:11:27.556Z,44.80
2018-06-02T05:12:27.198Z,45.40
2018-06-02T05:13:26.239Z,44.80
2018-06-02T05:14:26.566Z,43.70
2018-06-02T05:15:26.011Z,42.80
2018-06-02T05:16:26.088Z,44.00
2018-06-02T05:17:25.906Z,44.40
2018-06-02T05:18:25.786Z,42.60
2018-06-02T05:19:48.368Z,44.10
2018-06-02T05:20:48.469Z,43.40
2018-06-02T05:22:11.937Z,43.90
2018-06-02T05:23:34.312Z,42.80
2018-06-02T05:24:56.104Z,43.40
2018-06-02T05:25:56.655Z,43.50
2018-06-02T05:26:56.506Z,42.10
2018-06-02T05:27:57.169Z,42.60
2018-06-02T05:28:57.067Z,41.60
2018-06-02T05:29:55.973Z,42.00
2018-06-02T05:30:56.908Z,42.60
2018-06-02T05:31:57.124Z,42.20
2018-06-02T05:32:55.860Z,41.00
2018-06-02T05:33:57.096Z,40.70
2018-06-02T05:35:17.892Z,40.90
2018-06-02T05:36:18.840Z,41.10
2018-06-02T05:37:18.670Z,38.60
2018-06-02T05:38:18.284Z,38.70
2018-06-02T05:39:18.355Z,37.20
2018-06-02T05:40:18.253Z,35.50
2018-06-02T05:41:40.267Z,33.90
2018-06-02T05:42:46.950Z,34.40
2018-06-02T05:43:40.838Z,33.90
2018-06-02T05:44:40.382Z,34.00
2018-06-02T05:45:41.582Z,33.30
2018-06-02T05:46:40.921Z,31.90
2018-06-02T05:47:40.745Z,31.50
2018-06-02T05:48:40.570Z,32.40
2018-06-02T05:49:40.583Z,30.90
2018-06-02T05:50:40.386Z,32.40
2018-06-02T05:51:41.142Z,31.30
2018-06-02T05:52:41.184Z,31.10
2018-06-02T05:54:02.795Z,31.00
2018-06-02T05:55:47.288Z,30.40
2018-06-02T05:56:46.959Z,31.60
2018-06-02T05:57:48.394Z,29.80
2018-06-02T05:58:48.468Z,29.40
2018-06-02T05:59:47.512Z,29.80
2018-06-02T06:00:47.513Z,30.80
2018-06-02T06:01:49.878Z,31.20
2018-06-02T06:02:48.272Z,31.00
2018-06-02T06:03:48.218Z,30.90
2018-06-02T06:04:47.999Z,31.00
2018-06-02T06:05:50.397Z,32.10
2018-06-02T06:07:09.652Z,32.20
2018-06-02T06:08:11.320Z,33.10
2018-06-02T06:09:36.666Z,33.40
2018-06-02T06:10:36.512Z,32.50
2018-06-02T06:11:37.351Z,33.70
2018-06-02T06:12:37.639Z,33.20
2018-06-02T06:13:37.331Z,33.30
2018-06-02T06:14:41.194Z,32.30
2018-06-02T06:15:40.967Z,33.10
2018-06-02T06:16:42.939Z,33.10
2018-06-02T06:17:37.288Z,32.40
2018-06-02T06:18:37.187Z,31.90
2018-06-02T06:19:38.986Z,32.90
2018-06-02T06:20:36.827Z,32.50
2018-06-02T06:21:39.116Z,32.00
2018-06-02T06:23:04.129Z,33.10
2018-06-02T06:24:03.077Z,33.10
2018-06-02T06:25:01.673Z,33.50
2018-06-02T06:26:04.079Z,34.70
2018-06-02T06:27:01.142Z,34.60
2018-06-02T06:28:00.877Z,35.20
2018-06-02T06:29:00.435Z,37.00
2018-06-02T06:29:59.997Z,34.50
2018-06-02T06:31:00.856Z,35.60
2018-06-02T06:32:00.531Z,34.40
2018-06-02T06:33:00.663Z,34.00
2018-06-02T06:34:00.646Z,34.70
2018-06-02T06:35:00.336Z,34.40
2018-06-02T06:36:00.311Z,35.30
2018-06-02T06:36:59.973Z,35.80
2018-06-02T06:38:00.789Z,32.90
2018-06-02T06:39:00.784Z,35.80
2018-06-02T06:40:00.864Z,35.70
2018-06-02T06:41:01.032Z,35.90
2018-06-02T06:42:01.486Z,35.80
2018-06-02T06:43:00.137Z,37.10
2018-06-02T06:44:00.995Z,36.90
2018-06-02T06:45:00.852Z,37.00
2018-06-02T06:46:01.868Z,35.90
2018-06-02T06:47:01.421Z,38.30
2018-06-02T06:48:01.078Z,35.50
2018-06-02T06:49:01.906Z,35.40
2018-06-02T06:50:01.082Z,37.20
2018-06-02T06:51:01.557Z,37.00
2018-06-02T06:52:00.940Z,37.00
2018-06-02T06:53:01.319Z,38.10
2018-06-02T06:54:00.766Z,38.30
2018-06-02T06:55:01.078Z,36.80
2018-06-02T06:56:00.838Z,35.00
2018-06-02T06:57:24.714Z,37.50
2018-06-02T06:58:28.673Z,37.10
2018-06-02T06:59:24.430Z,35.00
2018-06-02T07:00:28.824Z,37.10
2018-06-02T07:01:25.056Z,35.70
2018-06-02T07:02:25.050Z,35.40
2018-06-02T07:03:25.264Z,35.40
2018-06-02T07:04:47.433Z,35.90
2018-06-02T07:05:47.494Z,33.30
2018-06-02T07:06:47.249Z,35.10
2018-06-02T07:07:48.264Z,35.10
2018-06-02T07:10:16.356Z,34.70
2018-06-02T07:11:16.081Z,34.40
2018-06-02T07:12:37.916Z,35.00
2018-06-02T07:13:37.769Z,34.40
2018-06-02T07:14:39.046Z,33.20
2018-06-02T07:15:39.286Z,33.60
2018-06-02T07:16:39.310Z,33.60
2018-06-02T07:17:59.980Z,34.10
2018-06-02T07:19:01.580Z,32.70
2018-06-02T07:20:25.230Z,0.00
2018-06-02T07:21:47.331Z,33.90
2018-06-02T07:22:48.205Z,52.10
2018-06-02T07:24:33.588Z,33.70
2018-06-02T07:25:55.852Z,33.00
2018-06-02T07:27:47.834Z,31.80
2018-06-02T07:28:48.962Z,31.80
2018-06-02T07:29:47.970Z,32.40
2018-06-02T07:30:47.762Z,32.20
2018-06-02T07:31:48.887Z,31.60
2018-06-02T07:32:49.169Z,33.50
2018-06-02T07:33:48.347Z,34.90
2018-06-02T07:34:48.022Z,35.10
2018-06-02T07:36:09.812Z,35.70
2018-06-02T07:37:10.920Z,35.50
2018-06-02T07:38:11.404Z,35.30
2018-06-02T07:39:32.014Z,36.50
2018-06-02T07:40:32.650Z,36.20
2018-06-02T07:41:32.881Z,36.20
2018-06-02T07:42:32.534Z,37.10
2018-06-02T07:43:32.363Z,36.60
2018-06-02T07:44:54.865Z,37.10
2018-06-02T07:45:54.487Z,39.00
2018-06-02T07:46:56.015Z,38.40
2018-06-02T07:47:54.704Z,36.90
2018-06-02T07:49:16.734Z,41.50
2018-06-02T07:50:17.656Z,39.70
2018-06-02T07:51:16.464Z,40.60
2018-06-02T07:52:16.300Z,41.60
2018-06-02T07:53:16.518Z,40.10
2018-06-02T07:54:39.800Z,40.20
2018-06-02T07:55:39.461Z,40.00
2018-06-02T07:56:40.345Z,40.80
2018-06-02T07:57:41.030Z,42.00
2018-06-02T07:59:02.658Z,39.60
2018-06-02T08:00:26.201Z,46.30
2018-06-02T08:01:26.294Z,51.10
2018-06-02T08:03:07.419Z,40.00
2018-06-02T08:04:29.428Z,38.10
2018-06-02T08:05:29.664Z,38.10
2018-06-02T08:06:29.296Z,37.50
2018-06-02T08:07:29.003Z,37.80
2018-06-02T08:08:28.891Z,36.60
2018-06-02T08:09:30.294Z,37.80
2018-06-02T08:10:28.973Z,36.90
2018-06-02T08:11:29.810Z,36.90
2018-06-02T08:12:29.787Z,37.30
2018-06-02T08:13:30.897Z,36.30
2018-06-02T08:14:30.134Z,36.60
2018-06-02T08:15:50.747Z,36.00
2018-06-02T08:17:15.749Z,35.40
2018-06-02T08:18:16.790Z,37.70
2018-06-02T08:19:41.028Z,36.20
2018-06-02T08:20:41.442Z,36.30
2018-06-02T08:21:41.713Z,34.90
2018-06-02T08:23:04.804Z,35.40
2018-06-02T08:24:03.809Z,34.30
2018-06-02T08:25:03.541Z,34.10
2018-06-02T08:26:03.267Z,33.30
2018-06-02T08:27:04.535Z,33.40
2018-06-02T08:28:05.145Z,33.10
2018-06-02T08:29:03.758Z,32.90
2018-06-02T08:30:25.669Z,31.60
2018-06-02T08:31:25.652Z,30.30
2018-06-02T08:32:26.878Z,30.50
2018-06-02T08:33:26.049Z,31.60
2018-06-02T08:34:26.388Z,33.10
2018-06-02T08:35:27.516Z,31.20
2018-06-02T08:36:26.612Z,29.40
2018-06-02T08:37:26.011Z,30.40
2018-06-02T08:38:47.468Z,28.60
2018-06-02T08:39:50.336Z,27.50
2018-06-02T08:40:50.791Z,28.20
2018-06-02T08:41:48.728Z,27.30
2018-06-02T08:42:47.945Z,27.90
2018-06-02T08:43:47.593Z,28.10
2018-06-02T08:44:47.510Z,28.00
2018-06-02T08:45:48.471Z,26.90
2018-06-02T08:46:49.218Z,27.30
2018-06-02T08:47:48.341Z,25.80
2018-06-02T08:48:48.584Z,24.60
2018-06-02T08:49:50.097Z,25.80
2018-06-02T08:50:48.788Z,26.00
2018-06-02T08:51:47.743Z,24.70
2018-06-02T08:52:47.404Z,24.00
2018-06-02T08:53:48.585Z,23.30
2018-06-02T08:54:48.588Z,23.80
2018-06-02T08:55:48.705Z,22.70
2018-06-02T08:56:48.765Z,21.90
2018-06-02T08:57:47.901Z,22.70
2018-06-02T08:58:47.713Z,22.40
2018-06-02T08:59:47.666Z,23.30
2018-06-02T09:00:47.676Z,23.00
2018-06-02T09:02:10.291Z,21.60
2018-06-02T09:03:10.028Z,21.00
2018-06-02T09:04:11.247Z,20.30
2018-06-02T09:05:11.240Z,20.40
2018-06-02T09:06:33.089Z,21.40
2018-06-02T09:07:33.268Z,21.30
2018-06-02T09:08:56.603Z,20.10
2018-06-02T09:09:57.325Z,19.70
2018-06-02T09:10:57.159Z,20.00
2018-06-02T09:11:57.032Z,17.80
2018-06-02T09:13:03.010Z,19.90
2018-06-02T09:13:57.287Z,20.50
2018-06-02T09:14:57.485Z,21.00
2018-06-02T09:15:57.656Z,21.90
2018-06-02T09:16:57.785Z,18.90
2018-06-02T09:17:57.900Z,19.50
2018-06-02T09:19:04.429Z,19.10
2018-06-02T09:19:57.638Z,18.20
2018-06-02T09:20:57.860Z,17.80
2018-06-02T09:21:58.094Z,18.10
2018-06-02T09:22:57.001Z,17.70
2018-06-02T09:23:56.662Z,18.50
2018-06-02T09:24:58.222Z,18.70
2018-06-02T09:25:56.949Z,18.30
2018-06-02T09:26:57.407Z,18.60
2018-06-02T09:28:19.603Z,18.30
2018-06-02T09:29:19.886Z,17.30
2018-06-02T09:30:20.101Z,18.50
2018-06-02T09:31:19.875Z,17.20
2018-06-02T09:32:19.901Z,17.50
2018-06-02T09:33:20.144Z,17.70
2018-06-02T09:34:20.309Z,17.00
2018-06-02T09:35:19.411Z,17.00
2018-06-02T09:36:19.622Z,17.10
2018-06-02T09:37:20.516Z,16.90
2018-06-02T09:38:19.532Z,16.70
2018-06-02T09:39:20.798Z,16.00
2018-06-02T09:40:19.853Z,16.60
2018-06-02T09:41:20.630Z,16.80
2018-06-02T09:42:19.918Z,17.10
2018-06-02T09:43:21.000Z,17.20
2018-06-02T09:44:19.912Z,16.50
2018-06-02T09:45:42.768Z,15.80
2018-06-02T09:47:05.973Z,16.60
2018-06-02T09:48:05.888Z,15.60
2018-06-02T09:49:27.396Z,16.20
2018-06-02T09:50:27.434Z,16.20
2018-06-02T09:51:27.411Z,16.70
2018-06-02T09:52:27.218Z,16.80
2018-06-02T09:53:27.700Z,17.60
2018-06-02T09:54:28.823Z,16.20
2018-06-02T09:55:27.806Z,17.60
2018-06-02T09:56:27.625Z,16.50
2018-06-02T09:57:27.664Z,17.30
2018-06-02T09:58:27.690Z,16.50
2018-06-02T09:59:27.662Z,16.00
2018-06-02T10:00:27.496Z,15.60
2018-06-02T10:01:27.212Z,16.40
2018-06-02T10:02:27.578Z,15.40
2018-06-02T10:03:27.760Z,16.10
2018-06-02T10:04:28.085Z,15.90
2018-06-02T10:05:28.038Z,16.50
2018-06-02T10:06:27.376Z,15.60
2018-06-02T10:07:27.748Z,17.30
2018-06-02T10:08:28.334Z,17.20
2018-06-02T10:09:27.663Z,17.40
2018-06-02T10:10:28.158Z,15.80
2018-06-02T10:11:28.091Z,15.10
2018-06-02T10:12:28.775Z,16.50
2018-06-02T10:13:29.327Z,16.30
2018-06-02T10:14:27.069Z,16.70
2018-06-02T10:15:27.335Z,16.90
2018-06-02T10:16:28.450Z,17.50
2018-06-02T10:17:27.189Z,17.00
2018-06-02T10:18:27.773Z,16.60
2018-06-02T10:19:28.153Z,16.60
2018-06-02T10:20:28.907Z,17.40
2018-06-02T10:21:28.975Z,14.80
2018-06-02T10:22:27.903Z,17.70
2018-06-02T10:23:28.070Z,16.80
2018-06-02T10:24:34.839Z,16.10
2018-06-02T10:25:29.781Z,17.00
2018-06-02T10:26:29.964Z,16.80
2018-06-02T10:27:28.422Z,17.50
2018-06-02T10:28:27.803Z,16.50
2018-06-02T10:29:29.142Z,17.10
2018-06-02T10:30:52.358Z,17.60
2018-06-02T10:31:52.503Z,17.60
2018-06-02T10:32:52.605Z,17.20
2018-06-02T10:33:53.195Z,17.80
2018-06-02T10:34:52.795Z,17.20
2018-06-02T10:36:17.882Z,18.20
2018-06-02T10:37:17.698Z,17.80
2018-06-02T10:38:18.041Z,17.50
2018-06-02T10:39:19.574Z,18.20
2018-06-02T10:40:17.718Z,19.00
2018-06-02T10:41:17.715Z,18.50
2018-06-02T10:42:24.078Z,18.70
2018-06-02T10:43:19.387Z,19.20
2018-06-02T10:44:18.134Z,20.40
2018-06-02T10:45:17.955Z,19.80
2018-06-02T10:46:17.853Z,20.40
2018-06-02T10:47:17.796Z,21.50
2018-06-02T10:48:17.884Z,20.40
2018-06-02T10:49:41.345Z,21.60
2018-06-02T10:50:43.166Z,24.00
2018-06-02T10:51:42.607Z,22.60
2018-06-02T10:52:41.568Z,22.80
2018-06-02T10:53:41.729Z,23.10
2018-06-02T10:55:05.486Z,24.60
2018-06-02T10:56:06.834Z,25.50
2018-06-02T10:57:06.126Z,27.50
2018-06-02T10:58:07.802Z,26.30
2018-06-02T10:59:40.216Z,25.20
2018-06-02T11:01:02.901Z,24.50
2018-06-02T11:02:03.777Z,25.10
2018-06-02T11:03:02.829Z,25.50
2018-06-02T11:04:02.859Z,24.70
2018-06-02T11:05:03.735Z,24.00
2018-06-02T11:06:03.331Z,23.50
2018-06-02T11:07:04.199Z,22.90
2018-06-02T11:08:08.171Z,21.80
2018-06-02T11:09:04.943Z,22.10
2018-06-02T11:10:55.780Z,23.30
2018-06-02T11:11:57.287Z,22.40
2018-06-02T11:14:16.653Z,22.10
2018-06-02T11:15:57.943Z,22.60
2018-06-02T11:16:46.018Z,22.40
2018-06-02T11:17:43.916Z,22.40
2018-06-02T11:18:43.536Z,21.30
2018-06-02T11:19:47.515Z,22.10
2018-06-02T11:20:44.107Z,21.90
2018-06-02T11:21:48.258Z,22.10
2018-06-02T11:22:45.833Z,22.70
2018-06-02T11:23:45.524Z,21.50
2018-06-02T11:24:46.110Z,21.80
2018-06-02T11:25:43.763Z,21.80
2018-06-02T11:26:44.954Z,22.10
2018-06-02T11:27:43.168Z,24.10
2018-06-02T11:28:55.262Z,23.10
2018-06-02T11:29:45.916Z,23.90
2018-06-02T11:31:19.353Z,23.40
2018-06-02T11:32:22.919Z,21.50
2018-06-02T11:33:03.319Z,22.70
2018-06-02T11:33:45.232Z,22.70
2018-06-02T11:34:49.854Z,22.60
2018-06-02T11:36:01.197Z,22.40
2018-06-02T11:36:49.395Z,21.20
2018-06-02T11:37:46.743Z,21.90
2018-06-02T11:38:44.750Z,23.30
2018-06-02T11:39:43.203Z,23.60
2018-06-02T11:40:48.749Z,22.60
2018-06-02T11:41:57.155Z,21.80
2018-06-02T11:42:43.222Z,21.00
2018-06-02T11:43:42.914Z,20.80
2018-06-02T11:44:42.879Z,20.60
2018-06-02T11:45:43.371Z,20.30
2018-06-02T11:46:42.712Z,22.20
2018-06-02T11:47:43.842Z,20.60
2018-06-02T11:49:38.806Z,21.40
2018-06-02T11:50:38.587Z,20.60
2018-06-02T11:51:39.371Z,21.00
2018-06-02T11:52:39.618Z,21.20
2018-06-02T11:53:38.850Z,21.90
2018-06-02T11:54:39.271Z,20.20
2018-06-02T11:55:38.616Z,19.80
2018-06-02T11:57:02.649Z,20.80
2018-06-02T11:58:03.827Z,20.50
2018-06-02T11:59:03.278Z,20.40
2018-06-02T12:00:03.752Z,20.90
2018-06-02T12:01:03.537Z,20.70
2018-06-02T12:02:03.926Z,20.20
2018-06-02T12:03:03.306Z,21.30
2018-06-02T12:04:03.208Z,20.30
2018-06-02T12:05:03.046Z,21.20
2018-06-02T12:06:04.261Z,20.70
2018-06-02T12:07:34.538Z,0.00
2018-06-02T12:08:54.696Z,20.10
2018-06-02T12:09:56.044Z,21.00
2018-06-02T12:10:57.081Z,19.50
2018-06-02T12:14:23.715Z,21.60
2018-06-02T12:15:17.438Z,21.10
2018-06-02T12:16:16.832Z,22.00
2018-06-02T12:17:44.188Z,21.20
2018-06-02T12:19:07.061Z,20.90
2018-06-02T12:20:07.344Z,21.40
2018-06-02T12:21:06.296Z,21.90
2018-06-02T12:22:07.086Z,21.00
2018-06-02T12:23:07.268Z,22.10
2018-06-02T12:24:06.227Z,22.60
2018-06-02T12:25:06.251Z,22.20
2018-06-02T12:26:06.127Z,21.80
2018-06-02T12:27:06.745Z,21.80
2018-06-02T12:28:07.534Z,21.30
2018-06-02T12:29:33.224Z,22.40
2018-06-02T12:30:32.229Z,21.70
2018-06-02T12:31:32.668Z,20.90
2018-06-02T12:32:32.687Z,21.50
2018-06-02T12:33:33.806Z,21.50
2018-06-02T12:34:31.900Z,21.20
2018-06-02T12:35:33.135Z,20.80
2018-06-02T12:36:56.071Z,20.60
2018-06-02T12:37:57.733Z,20.80
2018-06-02T12:38:56.312Z,21.60
2018-06-02T12:39:57.203Z,21.60
2018-06-02T12:40:58.191Z,21.60
2018-06-02T12:41:56.132Z,22.00
2018-06-02T12:42:57.710Z,22.00
2018-06-02T12:43:56.086Z,22.10
2018-06-02T12:44:56.637Z,23.50
2018-06-02T12:45:56.929Z,23.60
2018-06-02T12:47:20.991Z,22.50
2018-06-02T12:49:09.145Z,22.20
2018-06-02T12:50:34.158Z,22.00
2018-06-02T12:51:38.043Z,21.70
2018-06-02T12:52:35.971Z,22.80
2018-06-02T12:53:35.342Z,22.90
2018-06-02T12:54:34.830Z,23.60
2018-06-02T12:55:35.880Z,24.60
2018-06-02T12:57:24.115Z,23.60
2018-06-02T12:58:24.832Z,23.50
2018-06-02T12:59:26.792Z,24.00
2018-06-02T13:00:25.151Z,22.80
2018-06-02T13:01:26.957Z,23.40
2018-06-02T13:02:24.151Z,22.80
2018-06-02T13:03:50.046Z,23.90
2018-06-02T13:04:50.009Z,23.10
2018-06-02T13:05:49.935Z,24.50
2018-06-02T13:06:50.267Z,24.10
2018-06-02T13:07:50.205Z,24.10
2018-06-02T13:08:49.279Z,25.30
2018-06-02T13:09:49.497Z,24.40
2018-06-02T13:11:14.129Z,24.60
2018-06-02T13:12:14.235Z,25.90
2018-06-02T13:13:37.731Z,26.10
2018-06-02T13:14:37.927Z,25.90
2018-06-02T13:16:01.943Z,25.90
2018-06-02T13:17:02.143Z,26.00
2018-06-02T13:18:02.582Z,26.10
2018-06-02T13:19:03.542Z,26.00
2018-06-02T13:20:03.370Z,27.00
2018-06-02T13:22:35.787Z,27.30
2018-06-02T13:23:36.007Z,27.30
2018-06-02T13:24:35.936Z,27.40
2018-06-02T13:25:35.976Z,27.50
2018-06-02T13:26:36.063Z,26.90
2018-06-02T13:27:36.221Z,28.30
2018-06-02T13:28:36.023Z,28.60
2018-06-02T13:29:35.869Z,28.50
2018-06-02T13:30:37.116Z,29.20
2018-06-02T13:33:00.334Z,27.80
2018-06-02T13:34:25.074Z,28.50
2018-06-02T13:35:25.952Z,27.40
2018-06-02T13:36:50.391Z,29.10
2018-06-02T13:38:14.515Z,29.50
2018-06-02T13:39:16.002Z,27.90
2018-06-02T13:40:15.769Z,28.90
2018-06-02T13:41:16.214Z,28.70
2018-06-02T13:42:14.704Z,29.60
2018-06-02T13:43:15.871Z,29.20
2018-06-02T13:44:16.124Z,28.70
2018-06-02T13:45:14.583Z,27.70
2018-06-02T13:46:15.351Z,26.90
2018-06-02T13:47:39.065Z,29.10
2018-06-02T13:48:39.663Z,27.00
2018-06-02T13:49:39.242Z,27.00
2018-06-02T13:50:39.200Z,28.20
2018-06-02T13:51:40.745Z,26.50
2018-06-02T13:52:40.223Z,28.70
2018-06-02T13:53:39.528Z,28.50